sensor_id;sensor_type;location;lat;lon;timestamp;P1;durP1;ratioP1;P2;durP2;ratioP2
44664;SDS011;30382;48.802;9.388;2022-12-18T00:02:21;30.20;;;17.70;;
44664;SDS011;30382;48.802;9.388;2022-12-18T00:05:06;30.10;;;17.00;;
44664;SDS011;30382;48.802;9.388;2022-12-18T00:07:50;25.10;;;14.97;;
44664;SDS011;30382;48.802;9.388;2022-12-18T00:10:34;32.57;;;17.37;;
44664;SDS011;30382;48.802;9.388;2022-12-18T00:13:19;41.67;;;19.40;;
44664;SDS011;30382;48.802;9.388;2022-12-18T00:16:04;32.50;;;15.20;;
44664;SDS011;30382;48.802;9.388;2022-12-18T00:18:49;30.77;;;16.00;;
44664;SDS011;30382;48.802;9.388;2022-12-18T00:21:35;41.47;;;17.10;;
44664;SDS011;30382;48.802;9.388;2022-12-18T00:24:19;29.30;;;16.60;;
44664;SDS011;30382;48.802;9.388;2022-12-18T00:27:03;36.63;;;18.83;;
44664;SDS011;30382;48.802;9.388;2022-12-18T00:29:48;27.93;;;15.73;;
44664;SDS011;30382;48.802;9.388;2022-12-18T00:32:32;29.50;;;15.90;;
44664;SDS011;30382;48.802;9.388;2022-12-18T00:35:17;35.40;;;18.13;;
44664;SDS011;30382;48.802;9.388;2022-12-18T00:38:01;42.33;;;18.10;;
44664;SDS011;30382;48.802;9.388;2022-12-18T00:40:45;32.57;;;16.30;;
44664;SDS011;30382;48.802;9.388;2022-12-18T00:43:30;30.87;;;15.10;;
44664;SDS011;30382;48.802;9.388;2022-12-18T00:46:18;32.63;;;16.07;;
44664;SDS011;30382;48.802;9.388;2022-12-18T00:49:02;29.80;;;14.73;;
44664;SDS011;30382;48.802;9.388;2022-12-18T00:51:47;28.53;;;15.97;;
44664;SDS011;30382;48.802;9.388;2022-12-18T00:54:31;26.27;;;15.93;;
44664;SDS011;30382;48.802;9.388;2022-12-18T00:57:16;27.90;;;14.80;;
44664;SDS011;30382;48.802;9.388;2022-12-18T01:00:02;25.63;;;14.90;;
44664;SDS011;30382;48.802;9.388;2022-12-18T01:02:46;33.03;;;13.53;;
44664;SDS011;30382;48.802;9.388;2022-12-18T01:05:31;19.90;;;13.40;;
44664;SDS011;30382;48.802;9.388;2022-12-18T01:08:19;32.63;;;15.17;;
44664;SDS011;30382;48.802;9.388;2022-12-18T01:11:09;31.17;;;15.57;;
44664;SDS011;30382;48.802;9.388;2022-12-18T01:13:54;31.10;;;14.87;;
44664;SDS011;30382;48.802;9.388;2022-12-18T01:16:40;27.33;;;14.50;;
44664;SDS011;30382;48.802;9.388;2022-12-18T01:19:24;31.60;;;16.67;;
44664;SDS011;30382;48.802;9.388;2022-12-18T01:22:09;35.57;;;16.47;;
44664;SDS011;30382;48.802;9.388;2022-12-18T01:24:53;27.10;;;15.07;;
44664;SDS011;30382;48.802;9.388;2022-12-18T01:27:39;33.27;;;13.93;;
44664;SDS011;30382;48.802;9.388;2022-12-18T01:30:24;26.97;;;16.67;;
44664;SDS011;30382;48.802;9.388;2022-12-18T01:33:11;27.37;;;15.07;;
44664;SDS011;30382;48.802;9.388;2022-12-18T01:35:55;30.30;;;18.30;;
44664;SDS011;30382;48.802;9.388;2022-12-18T01:38:40;30.47;;;13.90;;
44664;SDS011;30382;48.802;9.388;2022-12-18T01:41:26;29.80;;;16.23;;
44664;SDS011;30382;48.802;9.388;2022-12-18T01:47:39;30.30;;;15.30;;
44664;SDS011;30382;48.802;9.388;2022-12-18T01:50:29;30.43;;;16.73;;
44664;SDS011;30382;48.802;9.388;2022-12-18T01:53:15;25.53;;;13.67;;
44664;SDS011;30382;48.802;9.388;2022-12-18T01:56:01;22.50;;;13.40;;
44664;SDS011;30382;48.802;9.388;2022-12-18T01:58:48;31.47;;;16.00;;
44664;SDS011;30382;48.802;9.388;2022-12-18T02:01:33;22.17;;;14.17;;
44664;SDS011;30382;48.802;9.388;2022-12-18T02:04:22;23.03;;;13.33;;
44664;SDS011;30382;48.802;9.388;2022-12-18T02:07:10;26.80;;;16.43;;
44664;SDS011;30382;48.802;9.388;2022-12-18T02:09:59;23.27;;;14.20;;
44664;SDS011;30382;48.802;9.388;2022-12-18T02:13:27;27.10;;;15.30;;
44664;SDS011;30382;48.802;9.388;2022-12-18T02:18:41;23.33;;;14.27;;
44664;SDS011;30382;48.802;9.388;2022-12-18T02:27:33;25.17;;;13.27;;
44664;SDS011;30382;48.802;9.388;2022-12-18T02:30:18;28.17;;;14.70;;
44664;SDS011;30382;48.802;9.388;2022-12-18T02:33:04;27.87;;;14.97;;
44664;SDS011;30382;48.802;9.388;2022-12-18T02:35:48;26.07;;;13.73;;
44664;SDS011;30382;48.802;9.388;2022-12-18T02:38:33;36.00;;;13.93;;
44664;SDS011;30382;48.802;9.388;2022-12-18T02:41:23;21.40;;;12.67;;
44664;SDS011;30382;48.802;9.388;2022-12-18T02:44:10;24.00;;;13.17;;
44664;SDS011;30382;48.802;9.388;2022-12-18T02:46:55;33.17;;;12.80;;
44664;SDS011;30382;48.802;9.388;2022-12-18T02:49:43;19.80;;;12.00;;
44664;SDS011;30382;48.802;9.388;2022-12-18T03:04:28;29.13;;;15.27;;
44664;SDS011;30382;48.802;9.388;2022-12-18T03:07:23;31.90;;;15.37;;
44664;SDS011;30382;48.802;9.388;2022-12-18T03:10:13;25.17;;;13.07;;
44664;SDS011;30382;48.802;9.388;2022-12-18T03:13:03;19.87;;;13.07;;
44664;SDS011;30382;48.802;9.388;2022-12-18T03:15:49;30.77;;;14.27;;
44664;SDS011;30382;48.802;9.388;2022-12-18T03:21:21;19.47;;;13.83;;
44664;SDS011;30382;48.802;9.388;2022-12-18T03:24:09;26.17;;;13.20;;
44664;SDS011;30382;48.802;9.388;2022-12-18T03:26:54;20.57;;;12.83;;
44664;SDS011;30382;48.802;9.388;2022-12-18T03:29:42;27.87;;;14.53;;
44664;SDS011;30382;48.802;9.388;2022-12-18T03:32:32;22.57;;;11.03;;
44664;SDS011;30382;48.802;9.388;2022-12-18T03:35:19;25.40;;;13.00;;
44664;SDS011;30382;48.802;9.388;2022-12-18T03:38:05;24.07;;;11.57;;
44664;SDS011;30382;48.802;9.388;2022-12-18T03:41:01;20.47;;;13.20;;
44664;SDS011;30382;48.802;9.388;2022-12-18T03:43:53;20.90;;;13.40;;
44664;SDS011;30382;48.802;9.388;2022-12-18T03:46:46;29.73;;;12.47;;
44664;SDS011;30382;48.802;9.388;2022-12-18T03:49:36;23.30;;;12.93;;
44664;SDS011;30382;48.802;9.388;2022-12-18T03:52:33;21.40;;;13.03;;
44664;SDS011;30382;48.802;9.388;2022-12-18T03:55:20;22.80;;;12.20;;
44664;SDS011;30382;48.802;9.388;2022-12-18T03:58:13;31.50;;;13.50;;
44664;SDS011;30382;48.802;9.388;2022-12-18T04:01:10;29.03;;;12.93;;
44664;SDS011;30382;48.802;9.388;2022-12-18T04:03:58;18.53;;;13.13;;
44664;SDS011;30382;48.802;9.388;2022-12-18T04:06:44;32.30;;;14.57;;
44664;SDS011;30382;48.802;9.388;2022-12-18T04:09:30;22.97;;;14.53;;
44664;SDS011;30382;48.802;9.388;2022-12-18T04:12:16;24.23;;;13.20;;
44664;SDS011;30382;48.802;9.388;2022-12-18T04:17:47;28.67;;;14.67;;
44664;SDS011;30382;48.802;9.388;2022-12-18T04:20:33;22.93;;;12.53;;
44664;SDS011;30382;48.802;9.388;2022-12-18T04:23:18;26.17;;;14.83;;
44664;SDS011;30382;48.802;9.388;2022-12-18T04:26:03;25.17;;;14.07;;
44664;SDS011;30382;48.802;9.388;2022-12-18T04:29:03;30.60;;;13.70;;
44664;SDS011;30382;48.802;9.388;2022-12-18T04:31:48;19.73;;;12.43;;
44664;SDS011;30382;48.802;9.388;2022-12-18T04:34:33;20.77;;;12.83;;
44664;SDS011;30382;48.802;9.388;2022-12-18T04:37:18;30.43;;;14.00;;
44664;SDS011;30382;48.802;9.388;2022-12-18T04:40:03;34.20;;;16.10;;
44664;SDS011;30382;48.802;9.388;2022-12-18T04:42:55;33.73;;;14.60;;
44664;SDS011;30382;48.802;9.388;2022-12-18T04:45:41;35.13;;;14.30;;
44664;SDS011;30382;48.802;9.388;2022-12-18T04:48:25;26.93;;;13.03;;
44664;SDS011;30382;48.802;9.388;2022-12-18T04:51:10;29.63;;;14.50;;
44664;SDS011;30382;48.802;9.388;2022-12-18T04:53:54;26.53;;;14.40;;
44664;SDS011;30382;48.802;9.388;2022-12-18T04:56:38;31.73;;;14.90;;
44664;SDS011;30382;48.802;9.388;2022-12-18T04:59:23;33.60;;;16.00;;
44664;SDS011;30382;48.802;9.388;2022-12-18T05:02:08;25.23;;;13.33;;
44664;SDS011;30382;48.802;9.388;2022-12-18T05:04:52;31.73;;;18.57;;
44664;SDS011;30382;48.802;9.388;2022-12-18T05:07:36;32.73;;;16.13;;
44664;SDS011;30382;48.802;9.388;2022-12-18T05:10:21;37.37;;;16.00;;
44664;SDS011;30382;48.802;9.388;2022-12-18T05:13:05;42.50;;;17.10;;
44664;SDS011;30382;48.802;9.388;2022-12-18T05:15:52;41.10;;;17.83;;
44664;SDS011;30382;48.802;9.388;2022-12-18T05:18:37;28.73;;;17.30;;
44664;SDS011;30382;48.802;9.388;2022-12-18T05:21:21;30.63;;;16.57;;
44664;SDS011;30382;48.802;9.388;2022-12-18T05:24:06;41.50;;;18.80;;
44664;SDS011;30382;48.802;9.388;2022-12-18T05:26:50;28.60;;;14.13;;
44664;SDS011;30382;48.802;9.388;2022-12-18T05:29:34;37.83;;;18.13;;
44664;SDS011;30382;48.802;9.388;2022-12-18T05:32:19;35.53;;;16.70;;
44664;SDS011;30382;48.802;9.388;2022-12-18T05:35:03;28.37;;;14.27;;
44664;SDS011;30382;48.802;9.388;2022-12-18T05:37:48;32.80;;;15.13;;
44664;SDS011;30382;48.802;9.388;2022-12-18T05:40:32;33.03;;;14.07;;
44664;SDS011;30382;48.802;9.388;2022-12-18T05:43:17;29.00;;;16.07;;
44664;SDS011;30382;48.802;9.388;2022-12-18T05:46:05;39.90;;;15.97;;
44664;SDS011;30382;48.802;9.388;2022-12-18T05:48:50;29.93;;;15.17;;
44664;SDS011;30382;48.802;9.388;2022-12-18T05:51:34;35.43;;;16.83;;
44664;SDS011;30382;48.802;9.388;2022-12-18T05:54:19;30.47;;;17.73;;
44664;SDS011;30382;48.802;9.388;2022-12-18T05:59:47;32.37;;;15.70;;
44664;SDS011;30382;48.802;9.388;2022-12-18T06:02:32;28.27;;;14.60;;
44664;SDS011;30382;48.802;9.388;2022-12-18T06:05:16;33.00;;;15.40;;
44664;SDS011;30382;48.802;9.388;2022-12-18T06:08:01;35.17;;;15.23;;
44664;SDS011;30382;48.802;9.388;2022-12-18T06:10:49;32.37;;;14.00;;
44664;SDS011;30382;48.802;9.388;2022-12-18T06:13:34;31.00;;;16.33;;
44664;SDS011;30382;48.802;9.388;2022-12-18T06:16:19;31.57;;;15.90;;
44664;SDS011;30382;48.802;9.388;2022-12-18T06:19:04;28.43;;;14.50;;
44664;SDS011;30382;48.802;9.388;2022-12-18T06:21:48;26.90;;;15.27;;
44664;SDS011;30382;48.802;9.388;2022-12-18T06:24:33;28.57;;;14.60;;
44664;SDS011;30382;48.802;9.388;2022-12-18T06:27:17;30.20;;;14.27;;
44664;SDS011;30382;48.802;9.388;2022-12-18T06:30:02;31.60;;;14.37;;
44664;SDS011;30382;48.802;9.388;2022-12-18T06:32:47;35.10;;;16.70;;
44664;SDS011;30382;48.802;9.388;2022-12-18T06:35:31;27.80;;;15.50;;
44664;SDS011;30382;48.802;9.388;2022-12-18T06:38:16;30.67;;;13.20;;
44664;SDS011;30382;48.802;9.388;2022-12-18T06:41:00;35.50;;;15.23;;
44664;SDS011;30382;48.802;9.388;2022-12-18T06:43:44;31.93;;;12.67;;
44664;SDS011;30382;48.802;9.388;2022-12-18T06:46:29;25.10;;;13.77;;
44664;SDS011;30382;48.802;9.388;2022-12-18T06:49:13;27.57;;;14.90;;
44664;SDS011;30382;48.802;9.388;2022-12-18T06:51:57;25.53;;;12.03;;
44664;SDS011;30382;48.802;9.388;2022-12-18T06:54:42;35.27;;;16.23;;
44664;SDS011;30382;48.802;9.388;2022-12-18T06:57:26;23.83;;;12.03;;
44664;SDS011;30382;48.802;9.388;2022-12-18T07:00:10;24.40;;;13.17;;
44664;SDS011;30382;48.802;9.388;2022-12-18T07:02:55;36.33;;;15.90;;
44664;SDS011;30382;48.802;9.388;2022-12-18T07:05:39;34.90;;;15.40;;
44664;SDS011;30382;48.802;9.388;2022-12-18T07:08:24;25.43;;;14.03;;
44664;SDS011;30382;48.802;9.388;2022-12-18T07:11:09;32.07;;;13.43;;
44664;SDS011;30382;48.802;9.388;2022-12-18T07:13:53;20.70;;;11.40;;
44664;SDS011;30382;48.802;9.388;2022-12-18T07:16:38;20.93;;;12.60;;
44664;SDS011;30382;48.802;9.388;2022-12-18T07:19:22;30.00;;;13.67;;
44664;SDS011;30382;48.802;9.388;2022-12-18T07:22:07;30.33;;;14.50;;
44664;SDS011;30382;48.802;9.388;2022-12-18T07:24:51;27.20;;;13.60;;
44664;SDS011;30382;48.802;9.388;2022-12-18T07:27:36;29.70;;;15.73;;
44664;SDS011;30382;48.802;9.388;2022-12-18T07:30:20;28.60;;;14.63;;
44664;SDS011;30382;48.802;9.388;2022-12-18T07:33:04;27.03;;;12.87;;
44664;SDS011;30382;48.802;9.388;2022-12-18T07:35:49;30.90;;;14.93;;
44664;SDS011;30382;48.802;9.388;2022-12-18T07:38:33;34.23;;;15.10;;
44664;SDS011;30382;48.802;9.388;2022-12-18T07:41:18;27.33;;;14.30;;
44664;SDS011;30382;48.802;9.388;2022-12-18T07:44:03;26.63;;;15.57;;
44664;SDS011;30382;48.802;9.388;2022-12-18T07:46:47;35.33;;;16.37;;
44664;SDS011;30382;48.802;9.388;2022-12-18T07:49:31;27.50;;;14.20;;
44664;SDS011;30382;48.802;9.388;2022-12-18T07:52:15;29.87;;;14.17;;
44664;SDS011;30382;48.802;9.388;2022-12-18T07:55:00;35.00;;;15.13;;
44664;SDS011;30382;48.802;9.388;2022-12-18T07:57:44;33.90;;;13.97;;
44664;SDS011;30382;48.802;9.388;2022-12-18T08:00:30;30.70;;;14.67;;
44664;SDS011;30382;48.802;9.388;2022-12-18T08:03:15;30.63;;;14.50;;
44664;SDS011;30382;48.802;9.388;2022-12-18T08:06:03;33.73;;;15.37;;
44664;SDS011;30382;48.802;9.388;2022-12-18T08:08:48;31.23;;;13.67;;
44664;SDS011;30382;48.802;9.388;2022-12-18T08:11:32;44.00;;;15.80;;
44664;SDS011;30382;48.802;9.388;2022-12-18T08:14:17;27.57;;;14.43;;
44664;SDS011;30382;48.802;9.388;2022-12-18T08:17:01;36.73;;;14.23;;
44664;SDS011;30382;48.802;9.388;2022-12-18T08:19:45;25.23;;;16.60;;
44664;SDS011;30382;48.802;9.388;2022-12-18T08:22:30;28.57;;;15.87;;
44664;SDS011;30382;48.802;9.388;2022-12-18T08:25:14;37.27;;;16.40;;
44664;SDS011;30382;48.802;9.388;2022-12-18T08:27:58;26.70;;;15.73;;
44664;SDS011;30382;48.802;9.388;2022-12-18T08:30:43;31.60;;;17.87;;
44664;SDS011;30382;48.802;9.388;2022-12-18T08:33:27;43.33;;;17.50;;
44664;SDS011;30382;48.802;9.388;2022-12-18T08:36:12;28.30;;;15.90;;
44664;SDS011;30382;48.802;9.388;2022-12-18T08:38:57;38.20;;;19.43;;
44664;SDS011;30382;48.802;9.388;2022-12-18T08:41:41;34.63;;;18.00;;
44664;SDS011;30382;48.802;9.388;2022-12-18T08:44:25;37.00;;;17.37;;
44664;SDS011;30382;48.802;9.388;2022-12-18T08:47:22;34.80;;;18.30;;
44664;SDS011;30382;48.802;9.388;2022-12-18T08:50:06;29.50;;;16.60;;
44664;SDS011;30382;48.802;9.388;2022-12-18T08:52:50;40.73;;;19.33;;
44664;SDS011;30382;48.802;9.388;2022-12-18T08:55:35;34.37;;;17.60;;
44664;SDS011;30382;48.802;9.388;2022-12-18T08:58:19;27.63;;;17.63;;
44664;SDS011;30382;48.802;9.388;2022-12-18T09:01:05;31.40;;;17.97;;
44664;SDS011;30382;48.802;9.388;2022-12-18T09:03:50;34.43;;;17.70;;
44664;SDS011;30382;48.802;9.388;2022-12-18T09:06:35;39.70;;;18.63;;
44664;SDS011;30382;48.802;9.388;2022-12-18T09:09:19;41.80;;;18.83;;
44664;SDS011;30382;48.802;9.388;2022-12-18T09:12:04;39.53;;;21.23;;
44664;SDS011;30382;48.802;9.388;2022-12-18T09:14:48;35.33;;;20.90;;
44664;SDS011;30382;48.802;9.388;2022-12-18T09:17:32;39.23;;;19.73;;
44664;SDS011;30382;48.802;9.388;2022-12-18T09:20:17;36.57;;;19.23;;
44664;SDS011;30382;48.802;9.388;2022-12-18T09:23:01;42.93;;;20.37;;
44664;SDS011;30382;48.802;9.388;2022-12-18T09:25:46;44.80;;;21.30;;
44664;SDS011;30382;48.802;9.388;2022-12-18T09:28:30;37.50;;;19.70;;
44664;SDS011;30382;48.802;9.388;2022-12-18T09:31:15;45.07;;;21.73;;
44664;SDS011;30382;48.802;9.388;2022-12-18T09:34:00;31.43;;;19.37;;
44664;SDS011;30382;48.802;9.388;2022-12-18T09:36:45;41.63;;;20.50;;
44664;SDS011;30382;48.802;9.388;2022-12-18T09:39:29;42.10;;;22.57;;
44664;SDS011;30382;48.802;9.388;2022-12-18T09:42:20;43.20;;;24.27;;
44664;SDS011;30382;48.802;9.388;2022-12-18T09:45:07;40.50;;;21.90;;
44664;SDS011;30382;48.802;9.388;2022-12-18T09:47:55;44.10;;;20.90;;
44664;SDS011;30382;48.802;9.388;2022-12-18T09:50:40;45.37;;;23.50;;
44664;SDS011;30382;48.802;9.388;2022-12-18T09:53:26;48.13;;;26.73;;
44664;SDS011;30382;48.802;9.388;2022-12-18T10:09:58;47.53;;;25.50;;
44664;SDS011;30382;48.802;9.388;2022-12-18T10:12:48;43.07;;;24.20;;
44664;SDS011;30382;48.802;9.388;2022-12-18T10:15:45;49.20;;;25.70;;
44664;SDS011;30382;48.802;9.388;2022-12-18T10:18:56;39.70;;;23.90;;
44664;SDS011;30382;48.802;9.388;2022-12-18T10:32:33;40.43;;;19.57;;
44664;SDS011;30382;48.802;9.388;2022-12-18T10:35:25;37.50;;;20.80;;
44664;SDS011;30382;48.802;9.388;2022-12-18T10:41:02;38.23;;;19.47;;
44664;SDS011;30382;48.802;9.388;2022-12-18T10:43:47;35.90;;;20.30;;
44664;SDS011;30382;48.802;9.388;2022-12-18T10:46:31;34.83;;;18.53;;
44664;SDS011;30382;48.802;9.388;2022-12-18T10:49:21;37.07;;;19.73;;
44664;SDS011;30382;48.802;9.388;2022-12-18T10:52:22;37.73;;;20.23;;
44664;SDS011;30382;48.802;9.388;2022-12-18T10:55:13;35.10;;;19.13;;
44664;SDS011;30382;48.802;9.388;2022-12-18T11:06:52;35.97;;;20.70;;
44664;SDS011;30382;48.802;9.388;2022-12-18T11:09:36;43.23;;;20.30;;
44664;SDS011;30382;48.802;9.388;2022-12-18T11:12:25;34.23;;;18.67;;
44664;SDS011;30382;48.802;9.388;2022-12-18T11:15:20;32.37;;;18.90;;
44664;SDS011;30382;48.802;9.388;2022-12-18T11:18:04;39.70;;;22.27;;
44664;SDS011;30382;48.802;9.388;2022-12-18T11:20:50;40.77;;;21.27;;
44664;SDS011;30382;48.802;9.388;2022-12-18T11:23:35;28.30;;;16.93;;
44664;SDS011;30382;48.802;9.388;2022-12-18T11:26:19;27.73;;;16.80;;
44664;SDS011;30382;48.802;9.388;2022-12-18T11:29:09;35.67;;;18.97;;
44664;SDS011;30382;48.802;9.388;2022-12-18T11:32:09;36.40;;;17.80;;
44664;SDS011;30382;48.802;9.388;2022-12-18T11:35:20;31.77;;;17.67;;
44664;SDS011;30382;48.802;9.388;2022-12-18T11:38:04;36.93;;;18.20;;
44664;SDS011;30382;48.802;9.388;2022-12-18T11:43:53;37.87;;;17.70;;
44664;SDS011;30382;48.802;9.388;2022-12-18T11:46:39;33.40;;;18.87;;
44664;SDS011;30382;48.802;9.388;2022-12-18T11:49:34;31.37;;;17.83;;
44664;SDS011;30382;48.802;9.388;2022-12-18T11:52:26;26.70;;;16.97;;
44664;SDS011;30382;48.802;9.388;2022-12-18T11:55:13;34.10;;;17.33;;
44664;SDS011;30382;48.802;9.388;2022-12-18T12:00:49;31.23;;;17.50;;
44664;SDS011;30382;48.802;9.388;2022-12-18T12:03:59;34.73;;;19.87;;
44664;SDS011;30382;48.802;9.388;2022-12-18T12:06:50;32.47;;;17.57;;
44664;SDS011;30382;48.802;9.388;2022-12-18T12:21:06;32.50;;;17.40;;
44664;SDS011;30382;48.802;9.388;2022-12-18T12:26:49;33.70;;;19.17;;
44664;SDS011;30382;48.802;9.388;2022-12-18T12:29:53;34.50;;;19.30;;
44664;SDS011;30382;48.802;9.388;2022-12-18T12:35:46;28.63;;;16.97;;
44664;SDS011;30382;48.802;9.388;2022-12-18T12:38:37;33.10;;;18.93;;
44664;SDS011;30382;48.802;9.388;2022-12-18T12:41:24;28.60;;;18.13;;
44664;SDS011;30382;48.802;9.388;2022-12-18T12:44:29;33.73;;;16.73;;
44664;SDS011;30382;48.802;9.388;2022-12-18T12:47:23;30.20;;;16.93;;
44664;SDS011;30382;48.802;9.388;2022-12-18T12:50:13;32.90;;;16.07;;
44664;SDS011;30382;48.802;9.388;2022-12-18T12:52:58;28.90;;;18.33;;
44664;SDS011;30382;48.802;9.388;2022-12-18T12:55:43;30.93;;;17.50;;
44664;SDS011;30382;48.802;9.388;2022-12-18T12:58:36;30.27;;;16.57;;
44664;SDS011;30382;48.802;9.388;2022-12-18T13:01:26;35.87;;;19.83;;
44664;SDS011;30382;48.802;9.388;2022-12-18T13:04:23;29.13;;;15.90;;
44664;SDS011;30382;48.802;9.388;2022-12-18T13:07:15;31.23;;;17.73;;
44664;SDS011;30382;48.802;9.388;2022-12-18T13:10:20;30.03;;;16.43;;
44664;SDS011;30382;48.802;9.388;2022-12-18T13:13:07;31.80;;;17.70;;
44664;SDS011;30382;48.802;9.388;2022-12-18T13:16:03;31.27;;;18.90;;
44664;SDS011;30382;48.802;9.388;2022-12-18T13:18:49;30.37;;;16.90;;
44664;SDS011;30382;48.802;9.388;2022-12-18T13:21:34;33.47;;;19.53;;
44664;SDS011;30382;48.802;9.388;2022-12-18T13:24:25;29.53;;;16.07;;
44664;SDS011;30382;48.802;9.388;2022-12-18T13:36:02;34.23;;;18.93;;
44664;SDS011;30382;48.802;9.388;2022-12-18T13:44:49;34.17;;;17.37;;
44664;SDS011;30382;48.802;9.388;2022-12-18T13:47:34;28.43;;;16.73;;
44664;SDS011;30382;48.802;9.388;2022-12-18T13:50:22;32.70;;;18.63;;
44664;SDS011;30382;48.802;9.388;2022-12-18T13:53:07;34.20;;;19.20;;
44664;SDS011;30382;48.802;9.388;2022-12-18T13:56:00;33.60;;;17.40;;
44664;SDS011;30382;48.802;9.388;2022-12-18T13:58:45;36.80;;;18.30;;
44664;SDS011;30382;48.802;9.388;2022-12-18T14:01:30;31.60;;;18.33;;
44664;SDS011;30382;48.802;9.388;2022-12-18T14:04:21;30.50;;;19.07;;
44664;SDS011;30382;48.802;9.388;2022-12-18T14:12:35;38.20;;;18.43;;
44664;SDS011;30382;48.802;9.388;2022-12-18T14:15:40;29.20;;;18.87;;
44664;SDS011;30382;48.802;9.388;2022-12-18T14:18:45;34.37;;;17.83;;
44664;SDS011;30382;48.802;9.388;2022-12-18T14:21:30;33.53;;;19.20;;
44664;SDS011;30382;48.802;9.388;2022-12-18T14:27:12;35.80;;;18.97;;
44664;SDS011;30382;48.802;9.388;2022-12-18T14:29:56;37.63;;;20.47;;
44664;SDS011;30382;48.802;9.388;2022-12-18T14:32:42;39.27;;;18.77;;
44664;SDS011;30382;48.802;9.388;2022-12-18T14:35:26;41.20;;;23.13;;
44664;SDS011;30382;48.802;9.388;2022-12-18T14:41:12;34.53;;;20.87;;
44664;SDS011;30382;48.802;9.388;2022-12-18T14:43:56;33.67;;;18.37;;
44664;SDS011;30382;48.802;9.388;2022-12-18T14:46:49;35.93;;;18.73;;
44664;SDS011;30382;48.802;9.388;2022-12-18T14:49:34;38.70;;;20.30;;
44664;SDS011;30382;48.802;9.388;2022-12-18T14:52:26;38.43;;;18.50;;
44664;SDS011;30382;48.802;9.388;2022-12-18T14:55:18;34.30;;;16.70;;
44664;SDS011;30382;48.802;9.388;2022-12-18T14:58:03;36.27;;;18.20;;
44664;SDS011;30382;48.802;9.388;2022-12-18T15:00:47;30.70;;;17.67;;
44664;SDS011;30382;48.802;9.388;2022-12-18T15:03:32;36.10;;;18.23;;
44664;SDS011;30382;48.802;9.388;2022-12-18T15:06:30;34.70;;;19.30;;
44664;SDS011;30382;48.802;9.388;2022-12-18T15:09:24;35.33;;;19.60;;
44664;SDS011;30382;48.802;9.388;2022-12-18T15:18:20;42.43;;;22.87;;
44664;SDS011;30382;48.802;9.388;2022-12-18T15:21:08;31.63;;;18.50;;
44664;SDS011;30382;48.802;9.388;2022-12-18T15:23:53;42.67;;;20.53;;
44664;SDS011;30382;48.802;9.388;2022-12-18T15:26:37;37.33;;;20.50;;
44664;SDS011;30382;48.802;9.388;2022-12-18T15:29:22;44.23;;;21.40;;
44664;SDS011;30382;48.802;9.388;2022-12-18T15:32:14;31.40;;;20.00;;
44664;SDS011;30382;48.802;9.388;2022-12-18T15:35:03;32.77;;;18.43;;
44664;SDS011;30382;48.802;9.388;2022-12-18T15:37:48;38.23;;;21.30;;
44664;SDS011;30382;48.802;9.388;2022-12-18T15:40:33;38.33;;;20.73;;
44664;SDS011;30382;48.802;9.388;2022-12-18T15:43:17;39.20;;;21.73;;
44664;SDS011;30382;48.802;9.388;2022-12-18T15:46:20;34.73;;;19.77;;
44664;SDS011;30382;48.802;9.388;2022-12-18T15:49:04;46.23;;;22.50;;
44664;SDS011;30382;48.802;9.388;2022-12-18T15:51:50;38.33;;;22.00;;
44664;SDS011;30382;48.802;9.388;2022-12-18T15:54:35;39.40;;;19.67;;
44664;SDS011;30382;48.802;9.388;2022-12-18T15:57:40;47.00;;;30.50;;
44664;SDS011;30382;48.802;9.388;2022-12-18T16:00:24;36.33;;;20.17;;
44664;SDS011;30382;48.802;9.388;2022-12-18T16:03:09;38.03;;;19.73;;
44664;SDS011;30382;48.802;9.388;2022-12-18T16:05:53;45.20;;;22.10;;
44664;SDS011;30382;48.802;9.388;2022-12-18T16:08:37;40.17;;;20.10;;
44664;SDS011;30382;48.802;9.388;2022-12-18T16:11:23;39.57;;;20.67;;
44664;SDS011;30382;48.802;9.388;2022-12-18T16:14:23;35.07;;;18.40;;
44664;SDS011;30382;48.802;9.388;2022-12-18T16:17:09;30.50;;;18.30;;
44664;SDS011;30382;48.802;9.388;2022-12-18T16:19:54;37.43;;;19.83;;
44664;SDS011;30382;48.802;9.388;2022-12-18T16:22:38;36.73;;;21.77;;
44664;SDS011;30382;48.802;9.388;2022-12-18T16:25:25;36.83;;;19.27;;
44664;SDS011;30382;48.802;9.388;2022-12-18T16:28:10;40.93;;;20.40;;
44664;SDS011;30382;48.802;9.388;2022-12-18T16:30:54;38.27;;;20.53;;
44664;SDS011;30382;48.802;9.388;2022-12-18T16:33:39;38.97;;;20.13;;
44664;SDS011;30382;48.802;9.388;2022-12-18T16:36:23;37.30;;;20.87;;
44664;SDS011;30382;48.802;9.388;2022-12-18T16:39:08;41.43;;;22.60;;
44664;SDS011;30382;48.802;9.388;2022-12-18T16:41:53;33.47;;;22.00;;
44664;SDS011;30382;48.802;9.388;2022-12-18T16:44:38;38.77;;;22.60;;
44664;SDS011;30382;48.802;9.388;2022-12-18T16:47:22;40.60;;;22.50;;
44664;SDS011;30382;48.802;9.388;2022-12-18T16:50:07;39.73;;;21.40;;
44664;SDS011;30382;48.802;9.388;2022-12-18T16:52:52;37.43;;;21.97;;
44664;SDS011;30382;48.802;9.388;2022-12-18T16:55:36;43.53;;;20.97;;
44664;SDS011;30382;48.802;9.388;2022-12-18T16:58:20;37.73;;;21.53;;
44664;SDS011;30382;48.802;9.388;2022-12-18T17:01:09;39.90;;;21.97;;
44664;SDS011;30382;48.802;9.388;2022-12-18T17:03:54;40.00;;;21.80;;
44664;SDS011;30382;48.802;9.388;2022-12-18T17:06:40;42.00;;;21.23;;
44664;SDS011;30382;48.802;9.388;2022-12-18T17:09:24;46.07;;;23.83;;
44664;SDS011;30382;48.802;9.388;2022-12-18T17:12:09;42.63;;;21.87;;
44664;SDS011;30382;48.802;9.388;2022-12-18T17:14:53;35.20;;;19.97;;
44664;SDS011;30382;48.802;9.388;2022-12-18T17:17:37;46.43;;;23.80;;
44664;SDS011;30382;48.802;9.388;2022-12-18T17:20:22;39.10;;;22.33;;
44664;SDS011;30382;48.802;9.388;2022-12-18T17:23:06;39.00;;;21.27;;
44664;SDS011;30382;48.802;9.388;2022-12-18T17:25:53;46.00;;;23.20;;
44664;SDS011;30382;48.802;9.388;2022-12-18T17:28:38;31.33;;;18.83;;
44664;SDS011;30382;48.802;9.388;2022-12-18T17:31:23;34.70;;;21.53;;
44664;SDS011;30382;48.802;9.388;2022-12-18T17:34:09;38.17;;;22.60;;
44664;SDS011;30382;48.802;9.388;2022-12-18T17:36:54;38.10;;;19.87;;
44664;SDS011;30382;48.802;9.388;2022-12-18T17:39:38;42.07;;;23.33;;
44664;SDS011;30382;48.802;9.388;2022-12-18T17:42:22;36.93;;;20.57;;
44664;SDS011;30382;48.802;9.388;2022-12-18T17:45:07;40.67;;;22.03;;
44664;SDS011;30382;48.802;9.388;2022-12-18T17:47:54;38.63;;;22.53;;
44664;SDS011;30382;48.802;9.388;2022-12-18T17:50:38;43.93;;;23.07;;
44664;SDS011;30382;48.802;9.388;2022-12-18T17:53:23;42.07;;;23.20;;
44664;SDS011;30382;48.802;9.388;2022-12-18T17:56:08;46.80;;;21.03;;
44664;SDS011;30382;48.802;9.388;2022-12-18T17:58:53;34.97;;;19.33;;
44664;SDS011;30382;48.802;9.388;2022-12-18T18:01:38;35.67;;;20.20;;
44664;SDS011;30382;48.802;9.388;2022-12-18T18:04:24;39.20;;;22.60;;
44664;SDS011;30382;48.802;9.388;2022-12-18T18:07:08;37.77;;;20.77;;
44664;SDS011;30382;48.802;9.388;2022-12-18T18:09:53;35.40;;;20.20;;
44664;SDS011;30382;48.802;9.388;2022-12-18T18:12:37;47.13;;;22.87;;
44664;SDS011;30382;48.802;9.388;2022-12-18T18:15:40;32.10;;;20.07;;
44664;SDS011;30382;48.802;9.388;2022-12-18T18:18:25;30.37;;;18.77;;
44664;SDS011;30382;48.802;9.388;2022-12-18T18:21:09;38.30;;;20.90;;